sensor_id;sensor_type;location;lat;lon;timestamp;temperature;humidity
23291;DHT22;11814;44.686;10.842;2023-08-31T00:00:34;19.80;99.90
23291;DHT22;11814;44.686;10.842;2023-08-31T00:03:00;19.80;99.90
23291;DHT22;11814;44.686;10.842;2023-08-31T00:05:26;19.80;99.90
23291;DHT22;11814;44.686;10.842;2023-08-31T00:07:54;19.80;99.90
23291;DHT22;11814;44.686;10.842;2023-08-31T00:10:20;19.70;99.90
23291;DHT22;11814;44.686;10.842;2023-08-31T00:12:46;19.80;99.90
23291;DHT22;11814;44.686;10.842;2023-08-31T00:15:11;19.70;99.90
23291;DHT22;11814;44.686;10.842;2023-08-31T00:17:37;19.70;99.90
23291;DHT22;11814;44.686;10.842;2023-08-31T00:20:04;19.60;99.90
23291;DHT22;11814;44.686;10.842;2023-08-31T00:22:32;19.60;99.90
23291;DHT22;11814;44.686;10.842;2023-08-31T00:24:58;19.60;99.90
23291;DHT22;11814;44.686;10.842;2023-08-31T00:27:23;19.60;99.90
23291;DHT22;11814;44.686;10.842;2023-08-31T00:29:49;19.60;99.90
23291;DHT22;11814;44.686;10.842;2023-08-31T00:32:17;19.50;99.90
23291;DHT22;11814;44.686;10.842;2023-08-31T00:34:44;19.50;99.90
23291;DHT22;11814;44.686;10.842;2023-08-31T00:37:09;19.60;99.90
23291;DHT22;11814;44.686;10.842;2023-08-31T00:39:35;19.50;99.90
23291;DHT22;11814;44.686;10.842;2023-08-31T00:42:01;19.50;99.90
23291;DHT22;11814;44.686;10.842;2023-08-31T00:44:26;19.60;99.90
23291;DHT22;11814;44.686;10.842;2023-08-31T00:46:52;19.60;99.90
23291;DHT22;11814;44.686;10.842;2023-08-31T00:49:18;19.60;99.90
23291;DHT22;11814;44.686;10.842;2023-08-31T00:51:45;19.60;99.90
23291;DHT22;11814;44.686;10.842;2023-08-31T00:54:17;19.60;99.90
23291;DHT22;11814;44.686;10.842;2023-08-31T00:56:43;19.60;99.90
23291;DHT22;11814;44.686;10.842;2023-08-31T00:59:09;19.70;99.90
23291;DHT22;11814;44.686;10.842;2023-08-31T01:01:51;19.50;99.90
23291;DHT22;11814;44.686;10.842;2023-08-31T01:04:38;19.50;99.90
23291;DHT22;11814;44.686;10.842;2023-08-31T01:10:04;19.50;99.90
23291;DHT22;11814;44.686;10.842;2023-08-31T01:12:54;19.50;99.90
23291;DHT22;11814;44.686;10.842;2023-08-31T01:15:25;19.50;99.90
23291;DHT22;11814;44.686;10.842;2023-08-31T01:17:54;19.50;99.90
23291;DHT22;11814;44.686;10.842;2023-08-31T01:21:20;19.50;99.90
23291;DHT22;11814;44.686;10.842;2023-08-31T01:23:26;19.50;99.90
23291;DHT22;11814;44.686;10.842;2023-08-31T01:25:54;19.50;99.90
23291;DHT22;11814;44.686;10.842;2023-08-31T01:28:20;19.50;99.90
23291;DHT22;11814;44.686;10.842;2023-08-31T01:30:46;19.50;99.90
23291;DHT22;11814;44.686;10.842;2023-08-31T01:33:11;19.50;99.90
23291;DHT22;11814;44.686;10.842;2023-08-31T01:35:43;19.50;99.90
23291;DHT22;11814;44.686;10.842;2023-08-31T01:38:13;19.40;99.90
23291;DHT22;11814;44.686;10.842;2023-08-31T01:40:49;19.40;99.90
23291;DHT22;11814;44.686;10.842;2023-08-31T01:43:19;19.50;99.90
23291;DHT22;11814;44.686;10.842;2023-08-31T01:45:47;19.40;99.90
23291;DHT22;11814;44.686;10.842;2023-08-31T01:48:16;19.40;99.90
23291;DHT22;11814;44.686;10.842;2023-08-31T01:50:42;19.40;99.90
23291;DHT22;11814;44.686;10.842;2023-08-31T01:53:07;19.40;99.90
23291;DHT22;11814;44.686;10.842;2023-08-31T01:55:33;19.40;99.90
23291;DHT22;11814;44.686;10.842;2023-08-31T01:57:59;19.40;99.90
23291;DHT22;11814;44.686;10.842;2023-08-31T02:00:25;19.40;99.90
23291;DHT22;11814;44.686;10.842;2023-08-31T02:02:51;19.40;99.90
23291;DHT22;11814;44.686;10.842;2023-08-31T02:05:17;19.30;99.90
23291;DHT22;11814;44.686;10.842;2023-08-31T02:07:43;19.30;99.90
23291;DHT22;11814;44.686;10.842;2023-08-31T02:10:09;19.30;99.90
23291;DHT22;11814;44.686;10.842;2023-08-31T02:12:35;19.20;99.90
23291;DHT22;11814;44.686;10.842;2023-08-31T02:15:04;19.10;99.90
23291;DHT22;11814;44.686;10.842;2023-08-31T02:17:31;19.10;99.90
23291;DHT22;11814;44.686;10.842;2023-08-31T02:19:56;19.10;99.90
23291;DHT22;11814;44.686;10.842;2023-08-31T02:22:23;19.00;99.90
23291;DHT22;11814;44.686;10.842;2023-08-31T02:24:48;19.00;99.90
23291;DHT22;11814;44.686;10.842;2023-08-31T02:27:14;19.00;99.90
23291;DHT22;11814;44.686;10.842;2023-08-31T02:29:40;19.00;99.90
23291;DHT22;11814;44.686;10.842;2023-08-31T02:32:06;18.90;99.90
23291;DHT22;11814;44.686;10.842;2023-08-31T02:34:31;18.90;99.90
23291;DHT22;11814;44.686;10.842;2023-08-31T02:36:57;18.90;99.90
23291;DHT22;11814;44.686;10.842;2023-08-31T02:39:23;18.80;99.90
23291;DHT22;11814;44.686;10.842;2023-08-31T02:41:49;18.80;99.90
23291;DHT22;11814;44.686;10.842;2023-08-31T02:44:14;18.80;99.90
23291;DHT22;11814;44.686;10.842;2023-08-31T02:46:40;18.80;99.90
23291;DHT22;11814;44.686;10.842;2023-08-31T02:49:05;18.80;99.90
23291;DHT22;11814;44.686;10.842;2023-08-31T02:51:31;18.70;99.90
23291;DHT22;11814;44.686;10.842;2023-08-31T02:53:57;18.70;99.90
23291;DHT22;11814;44.686;10.842;2023-08-31T02:56:23;18.70;99.90
23291;DHT22;11814;44.686;10.842;2023-08-31T02:58:48;18.60;99.90
23291;DHT22;11814;44.686;10.842;2023-08-31T03:01:14;18.60;99.90
23291;DHT22;11814;44.686;10.842;2023-08-31T03:03:41;18.60;99.90
23291;DHT22;11814;44.686;10.842;2023-08-31T03:06:10;18.50;99.90
23291;DHT22;11814;44.686;10.842;2023-08-31T03:08:36;18.50;99.90
23291;DHT22;11814;44.686;10.842;2023-08-31T03:11:03;18.50;99.90
23291;DHT22;11814;44.686;10.842;2023-08-31T03:13:29;18.40;99.90
23291;DHT22;11814;44.686;10.842;2023-08-31T03:15:55;18.40;99.90
23291;DHT22;11814;44.686;10.842;2023-08-31T03:18:22;18.40;99.90
23291;DHT22;11814;44.686;10.842;2023-08-31T03:20:48;18.40;99.90
23291;DHT22;11814;44.686;10.842;2023-08-31T03:23:13;18.40;99.90
23291;DHT22;11814;44.686;10.842;2023-08-31T03:25:39;18.40;99.90
23291;DHT22;11814;44.686;10.842;2023-08-31T03:28:05;18.30;99.90
23291;DHT22;11814;44.686;10.842;2023-08-31T03:30:31;18.30;99.90
23291;DHT22;11814;44.686;10.842;2023-08-31T03:32:57;18.30;99.90
23291;DHT22;11814;44.686;10.842;2023-08-31T03:35:22;18.30;99.90
23291;DHT22;11814;44.686;10.842;2023-08-31T03:37:52;18.30;99.90
23291;DHT22;11814;44.686;10.842;2023-08-31T03:40:18;18.20;99.90
23291;DHT22;11814;44.686;10.842;2023-08-31T03:42:44;18.20;99.90
23291;DHT22;11814;44.686;10.842;2023-08-31T03:45:10;18.30;99.90
23291;DHT22;11814;44.686;10.842;2023-08-31T03:47:36;18.30;99.90
23291;DHT22;11814;44.686;10.842;2023-08-31T03:50:01;18.30;99.90
23291;DHT22;11814;44.686;10.842;2023-08-31T03:52:27;18.30;99.90
23291;DHT22;11814;44.686;10.842;2023-08-31T03:54:54;18.40;99.90
23291;DHT22;11814;44.686;10.842;2023-08-31T03:57:19;18.50;99.90
23291;DHT22;11814;44.686;10.842;2023-08-31T03:59:45;18.50;99.90
23291;DHT22;11814;44.686;10.842;2023-08-31T04:02:11;18.60;99.90
23291;DHT22;11814;44.686;10.842;2023-08-31T04:04:37;18.70;99.90
23291;DHT22;11814;44.686;10.842;2023-08-31T04:07:02;18.70;99.90
23291;DHT22;11814;44.686;10.842;2023-08-31T04:09:29;18.80;99.90
23291;DHT22;11814;44.686;10.842;2023-08-31T04:11:55;18.80;99.90
23291;DHT22;11814;44.686;10.842;2023-08-31T04:14:21;18.80;99.90
23291;DHT22;11814;44.686;10.842;2023-08-31T04:16:47;18.80;99.90
23291;DHT22;11814;44.686;10.842;2023-08-31T04:19:15;18.90;99.90
23291;DHT22;11814;44.686;10.842;2023-08-31T04:21:42;18.90;99.90
23291;DHT22;11814;44.686;10.842;2023-08-31T04:24:07;18.90;99.90
23291;DHT22;11814;44.686;10.842;2023-08-31T04:26:33;18.90;99.90
23291;DHT22;11814;44.686;10.842;2023-08-31T04:28:59;19.00;99.90
23291;DHT22;11814;44.686;10.842;2023-08-31T04:31:24;19.00;99.90
23291;DHT22;11814;44.686;10.842;2023-08-31T04:33:50;19.00;99.90
23291;DHT22;11814;44.686;10.842;2023-08-31T04:36:19;19.00;99.90
23291;DHT22;11814;44.686;10.842;2023-08-31T04:38:45;19.10;99.90
23291;DHT22;11814;44.686;10.842;2023-08-31T04:41:11;19.00;99.90
23291;DHT22;11814;44.686;10.842;2023-08-31T04:43:36;19.00;99.90
23291;DHT22;11814;44.686;10.842;2023-08-31T04:46:02;19.00;99.90
23291;DHT22;11814;44.686;10.842;2023-08-31T04:48:29;19.00;99.90
23291;DHT22;11814;44.686;10.842;2023-08-31T04:50:58;19.00;99.90
23291;DHT22;11814;44.686;10.842;2023-08-31T04:53:24;19.00;99.90
23291;DHT22;11814;44.686;10.842;2023-08-31T04:55:50;19.00;99.90
23291;DHT22;11814;44.686;10.842;2023-08-31T04:58:15;19.00;99.90
23291;DHT22;11814;44.686;10.842;2023-08-31T05:00:41;19.00;99.90
23291;DHT22;11814;44.686;10.842;2023-08-31T05:03:07;19.00;99.90
23291;DHT22;11814;44.686;10.842;2023-08-31T05:05:32;19.10;99.90
23291;DHT22;11814;44.686;10.842;2023-08-31T05:07:58;19.10;99.90
23291;DHT22;11814;44.686;10.842;2023-08-31T05:10:24;19.20;99.90
23291;DHT22;11814;44.686;10.842;2023-08-31T05:12:50;19.20;99.90
23291;DHT22;11814;44.686;10.842;2023-08-31T05:15:15;19.20;99.90
23291;DHT22;11814;44.686;10.842;2023-08-31T05:17:42;19.20;99.90
23291;DHT22;11814;44.686;10.842;2023-08-31T05:20:08;19.20;99.90
23291;DHT22;11814;44.686;10.842;2023-08-31T05:22:35;19.30;99.90
23291;DHT22;11814;44.686;10.842;2023-08-31T05:25:01;19.30;99.90
23291;DHT22;11814;44.686;10.842;2023-08-31T05:27:27;19.30;99.90
23291;DHT22;11814;44.686;10.842;2023-08-31T05:29:52;19.40;99.90
23291;DHT22;11814;44.686;10.842;2023-08-31T05:32:18;19.50;99.90
23291;DHT22;11814;44.686;10.842;2023-08-31T05:34:44;19.50;99.90
23291;DHT22;11814;44.686;10.842;2023-08-31T05:37:09;19.60;99.90
23291;DHT22;11814;44.686;10.842;2023-08-31T05:39:35;19.70;99.90
23291;DHT22;11814;44.686;10.842;2023-08-31T05:42:01;19.80;99.90
23291;DHT22;11814;44.686;10.842;2023-08-31T05:44:26;19.90;99.90
23291;DHT22;11814;44.686;10.842;2023-08-31T05:46:52;19.90;99.90
23291;DHT22;11814;44.686;10.842;2023-08-31T05:49:17;20.00;99.90
23291;DHT22;11814;44.686;10.842;2023-08-31T05:51:43;20.10;99.90
23291;DHT22;11814;44.686;10.842;2023-08-31T05:54:09;20.20;99.90
23291;DHT22;11814;44.686;10.842;2023-08-31T05:56:38;20.30;99.90
23291;DHT22;11814;44.686;10.842;2023-08-31T05:59:08;20.30;99.90
23291;DHT22;11814;44.686;10.842;2023-08-31T06:01:35;20.40;99.90
23291;DHT22;11814;44.686;10.842;2023-08-31T06:04:01;20.40;99.90
23291;DHT22;11814;44.686;10.842;2023-08-31T06:06:28;20.50;99.90
23291;DHT22;11814;44.686;10.842;2023-08-31T06:08:54;20.50;99.90
23291;DHT22;11814;44.686;10.842;2023-08-31T06:11:20;20.50;99.90
23291;DHT22;11814;44.686;10.842;2023-08-31T06:13:46;20.50;99.90
23291;DHT22;11814;44.686;10.842;2023-08-31T06:16:12;20.50;99.90
23291;DHT22;11814;44.686;10.842;2023-08-31T06:18:38;20.50;99.90
23291;DHT22;11814;44.686;10.842;2023-08-31T06:21:03;20.50;99.90
23291;DHT22;11814;44.686;10.842;2023-08-31T06:23:29;20.60;99.90
23291;DHT22;11814;44.686;10.842;2023-08-31T06:25:54;20.70;99.90
23291;DHT22;11814;44.686;10.842;2023-08-31T06:28:20;20.80;99.90
23291;DHT22;11814;44.686;10.842;2023-08-31T06:30:46;20.90;99.90
23291;DHT22;11814;44.686;10.842;2023-08-31T06:33:14;21.00;99.90
23291;DHT22;11814;44.686;10.842;2023-08-31T06:35:40;21.10;99.90
23291;DHT22;11814;44.686;10.842;2023-08-31T06:38:05;21.20;99.90
23291;DHT22;11814;44.686;10.842;2023-08-31T06:40:31;21.30;99.90
23291;DHT22;11814;44.686;10.842;2023-08-31T06:42:57;21.40;99.90
23291;DHT22;11814;44.686;10.842;2023-08-31T06:45:22;21.40;99.90
23291;DHT22;11814;44.686;10.842;2023-08-31T06:47:48;21.40;99.90
23291;DHT22;11814;44.686;10.842;2023-08-31T06:50:14;21.50;99.90
23291;DHT22;11814;44.686;10.842;2023-08-31T06:52:40;21.50;99.90
23291;DHT22;11814;44.686;10.842;2023-08-31T06:55:07;21.40;99.90
23291;DHT22;11814;44.686;10.842;2023-08-31T06:57:32;21.40;99.90
23291;DHT22;11814;44.686;10.842;2023-08-31T06:59:58;21.40;99.90
23291;DHT22;11814;44.686;10.842;2023-08-31T07:02:26;21.40;99.90
23291;DHT22;11814;44.686;10.842;2023-08-31T07:04:52;21.50;99.90
23291;DHT22;11814;44.686;10.842;2023-08-31T07:07:18;21.50;99.90
23291;DHT22;11814;44.686;10.842;2023-08-31T07:09:45;21.50;99.90
23291;DHT22;11814;44.686;10.842;2023-08-31T07:12:11;21.60;99.90
23291;DHT22;11814;44.686;10.842;2023-08-31T07:14:37;21.60;99.90
23291;DHT22;11814;44.686;10.842;2023-08-31T07:17:03;21.60;99.90
23291;DHT22;11814;44.686;10.842;2023-08-31T07:19:29;21.70;99.90
23291;DHT22;11814;44.686;10.842;2023-08-31T07:21:54;21.70;99.90
23291;DHT22;11814;44.686;10.842;2023-08-31T07:24:21;21.70;99.90
23291;DHT22;11814;44.686;10.842;2023-08-31T07:26:47;21.90;99.90
23291;DHT22;11814;44.686;10.842;2023-08-31T07:29:13;22.00;99.90
23291;DHT22;11814;44.686;10.842;2023-08-31T07:31:38;22.10;99.90
23291;DHT22;11814;44.686;10.842;2023-08-31T07:34:04;22.30;99.90
23291;DHT22;11814;44.686;10.842;2023-08-31T07:36:30;22.50;99.90
23291;DHT22;11814;44.686;10.842;2023-08-31T07:38:56;22.60;99.90
23291;DHT22;11814;44.686;10.842;2023-08-31T07:41:21;22.80;99.90
23291;DHT22;11814;44.686;10.842;2023-08-31T07:43:47;22.90;99.90
23291;DHT22;11814;44.686;10.842;2023-08-31T07:46:14;23.20;99.90
23291;DHT22;11814;44.686;10.842;2023-08-31T07:48:41;23.30;98.70
23291;DHT22;11814;44.686;10.842;2023-08-31T07:51:07;23.40;98.10
23291;DHT22;11814;44.686;10.842;2023-08-31T07:53:33;23.60;97.50
23291;DHT22;11814;44.686;10.842;2023-08-31T07:55:58;23.60;97.20
23291;DHT22;11814;44.686;10.842;2023-08-31T07:58:24;23.60;96.20
23291;DHT22;11814;44.686;10.842;2023-08-31T08:00:55;23.70;95.70
23291;DHT22;11814;44.686;10.842;2023-08-31T08:03:24;23.90;95.20
23291;DHT22;11814;44.686;10.842;2023-08-31T08:05:50;24.00;94.60
23291;DHT22;11814;44.686;10.842;2023-08-31T08:08:16;24.00;94.50
23291;DHT22;11814;44.686;10.842;2023-08-31T08:10:42;24.10;94.40
23291;DHT22;11814;44.686;10.842;2023-08-31T08:13:09;24.30;93.90
23291;DHT22;11814;44.686;10.842;2023-08-31T08:15:35;24.40;93.30
23291;DHT22;11814;44.686;10.842;2023-08-31T08:18:00;24.40;92.80
23291;DHT22;11814;44.686;10.842;2023-08-31T08:20:27;24.30;92.60
23291;DHT22;11814;44.686;10.842;2023-08-31T08:22:53;24.20;92.30
23291;DHT22;11814;44.686;10.842;2023-08-31T08:25:20;24.20;92.10
23291;DHT22;11814;44.686;10.842;2023-08-31T08:27:46;24.20;91.90
23291;DHT22;11814;44.686;10.842;2023-08-31T08:30:12;24.20;91.70
23291;DHT22;11814;44.686;10.842;2023-08-31T08:32:37;24.20;91.30
23291;DHT22;11814;44.686;10.842;2023-08-31T08:35:03;24.30;91.00
23291;DHT22;11814;44.686;10.842;2023-08-31T08:37:30;24.30;90.70
23291;DHT22;11814;44.686;10.842;2023-08-31T08:39:57;24.40;90.50
23291;DHT22;11814;44.686;10.842;2023-08-31T08:42:24;24.40;90.10
23291;DHT22;11814;44.686;10.842;2023-08-31T08:44:51;24.50;90.00
23291;DHT22;11814;44.686;10.842;2023-08-31T08:47:17;24.50;89.60
23291;DHT22;11814;44.686;10.842;2023-08-31T08:49:43;24.60;89.10
23291;DHT22;11814;44.686;10.842;2023-08-31T08:52:10;24.60;88.70
23291;DHT22;11814;44.686;10.842;2023-08-31T08:54:37;24.60;88.40
23291;DHT22;11814;44.686;10.842;2023-08-31T08:57:03;24.70;88.40
23291;DHT22;11814;44.686;10.842;2023-08-31T08:59:32;24.80;88.20
23291;DHT22;11814;44.686;10.842;2023-08-31T09:01:57;24.80;87.50
23291;DHT22;11814;44.686;10.842;2023-08-31T09:04:23;24.80;86.90
23291;DHT22;11814;44.686;10.842;2023-08-31T09:06:52;24.90;86.30
23291;DHT22;11814;44.686;10.842;2023-08-31T09:09:17;24.90;86.20
23291;DHT22;11814;44.686;10.842;2023-08-31T09:11:45;25.00;86.40
23291;DHT22;11814;44.686;10.842;2023-08-31T09:14:15;25.00;85.80
23291;DHT22;11814;44.686;10.842;2023-08-31T09:16:47;25.00;85.20
23291;DHT22;11814;44.686;10.842;2023-08-31T09:19:23;25.10;85.00
23291;DHT22;11814;44.686;10.842;2023-08-31T09:21:56;25.10;84.30
23291;DHT22;11814;44.686;10.842;2023-08-31T09:24:22;25.20;84.10
23291;DHT22;11814;44.686;10.842;2023-08-31T09:26:57;25.30;83.70
23291;DHT22;11814;44.686;10.842;2023-08-31T09:29:24;25.40;83.10
23291;DHT22;11814;44.686;10.842;2023-08-31T09:31:49;25.50;83.00
23291;DHT22;11814;44.686;10.842;2023-08-31T09:34:16;25.50;82.80
23291;DHT22;11814;44.686;10.842;2023-08-31T09:36:43;25.50;82.10
23291;DHT22;11814;44.686;10.842;2023-08-31T09:39:09;25.60;81.80
23291;DHT22;11814;44.686;10.842;2023-08-31T09:41:52;25.60;81.70
23291;DHT22;11814;44.686;10.842;2023-08-31T09:44:19;25.80;81.50
23291;DHT22;11814;44.686;10.842;2023-08-31T09:46:45;25.80;80.90
23291;DHT22;11814;44.686;10.842;2023-08-31T09:49:14;25.80;79.80
23291;DHT22;11814;44.686;10.842;2023-08-31T09:51:44;25.90;79.10
23291;DHT22;11814;44.686;10.842;2023-08-31T09:54:13;26.00;78.80
23291;DHT22;11814;44.686;10.842;2023-08-31T09:56:45;26.10;78.40
23291;DHT22;11814;44.686;10.842;2023-08-31T09:59:13;26.20;77.40
23291;DHT22;11814;44.686;10.842;2023-08-31T10:01:44;26.10;76.30
23291;DHT22;11814;44.686;10.842;2023-08-31T10:04:10;26.20;76.10
23291;DHT22;11814;44.686;10.842;2023-08-31T10:06:39;26.30;75.80
23291;DHT22;11814;44.686;10.842;2023-08-31T10:09:05;26.30;75.70
23291;DHT22;11814;44.686;10.842;2023-08-31T10:11:32;26.40;75.80
23291;DHT22;11814;44.686;10.842;2023-08-31T10:13:58;26.40;75.40
23291;DHT22;11814;44.686;10.842;2023-08-31T10:16:27;26.50;74.90
23291;DHT22;11814;44.686;10.842;2023-08-31T10:18:55;26.50;74.70
23291;DHT22;11814;44.686;10.842;2023-08-31T10:21:21;26.50;74.50
23291;DHT22;11814;44.686;10.842;2023-08-31T10:23:51;26.50;73.90
23291;DHT22;11814;44.686;10.842;2023-08-31T10:26:30;26.50;73.30
23291;DHT22;11814;44.686;10.842;2023-08-31T10:28:57;26.50;72.90
23291;DHT22;11814;44.686;10.842;2023-08-31T10:31:24;26.50;72.60
23291;DHT22;11814;44.686;10.842;2023-08-31T10:34:00;26.50;72.90
23291;DHT22;11814;44.686;10.842;2023-08-31T10:39:22;26.70;72.80
23291;DHT22;11814;44.686;10.842;2023-08-31T10:41:55;26.80;72.70
23291;DHT22;11814;44.686;10.842;2023-08-31T10:44:23;26.80;72.50
23291;DHT22;11814;44.686;10.842;2023-08-31T10:46:50;26.80;72.80
23291;DHT22;11814;44.686;10.842;2023-08-31T10:49:18;26.90;73.10
23291;DHT22;11814;44.686;10.842;2023-08-31T10:51:48;27.00;73.10
23291;DHT22;11814;44.686;10.842;2023-08-31T10:54:21;27.00;72.20
23291;DHT22;11814;44.686;10.842;2023-08-31T10:59:24;27.20;72.10
23291;DHT22;11814;44.686;10.842;2023-08-31T11:02:00;27.30;71.50
23291;DHT22;11814;44.686;10.842;2023-08-31T11:04:30;27.30;70.70
23291;DHT22;11814;44.686;10.842;2023-08-31T11:07:18;27.40;70.40
23291;DHT22;11814;44.686;10.842;2023-08-31T11:09:45;27.40;68.90
23291;DHT22;11814;44.686;10.842;2023-08-31T11:12:13;27.40;68.70
23291;DHT22;11814;44.686;10.842;2023-08-31T11:14:39;27.40;70.10
23291;DHT22;11814;44.686;10.842;2023-08-31T11:17:05;27.50;69.80
23291;DHT22;11814;44.686;10.842;2023-08-31T11:19:32;27.60;69.50
23291;DHT22;11814;44.686;10.842;2023-08-31T11:22:02;27.60;69.90
23291;DHT22;11814;44.686;10.842;2023-08-31T11:24:32;27.70;68.70
23291;DHT22;11814;44.686;10.842;2023-08-31T11:26:58;27.70;68.70
23291;DHT22;11814;44.686;10.842;2023-08-31T11:29:24;27.80;68.60
23291;DHT22;11814;44.686;10.842;2023-08-31T11:31:49;27.80;67.30
23291;DHT22;11814;44.686;10.842;2023-08-31T11:34:16;27.80;66.90
23291;DHT22;11814;44.686;10.842;2023-08-31T11:36:43;27.90;67.20
23291;DHT22;11814;44.686;10.842;2023-08-31T11:39:10;28.00;67.30
23291;DHT22;11814;44.686;10.842;2023-08-31T11:41:36;28.00;66.20
23291;DHT22;11814;44.686;10.842;2023-08-31T11:44:16;28.00;65.90
23291;DHT22;11814;44.686;10.842;2023-08-31T11:46:44;28.00;65.50
23291;DHT22;11814;44.686;10.842;2023-08-31T11:49:11;28.00;65.80
23291;DHT22;11814;44.686;10.842;2023-08-31T11:51:38;28.00;65.80
23291;DHT22;11814;44.686;10.842;2023-08-31T11:54:05;28.10;65.70
23291;DHT22;11814;44.686;10.842;2023-08-31T11:56:44;28.00;65.60
23291;DHT22;11814;44.686;10.842;2023-08-31T11:59:15;28.10;65.40
23291;DHT22;11814;44.686;10.842;2023-08-31T12:01:49;28.20;65.10
23291;DHT22;11814;44.686;10.842;2023-08-31T12:04:24;28.20;64.80
23291;DHT22;11814;44.686;10.842;2023-08-31T12:06:52;28.20;64.50
23291;DHT22;11814;44.686;10.842;2023-08-31T12:09:20;28.10;64.00
23291;DHT22;11814;44.686;10.842;2023-08-31T12:11:52;28.10;64.20
23291;DHT22;11814;44.686;10.842;2023-08-31T12:14:22;28.20;64.00
23291;DHT22;11814;44.686;10.842;2023-08-31T12:16:49;28.20;63.40
23291;DHT22;11814;44.686;10.842;2023-08-31T12:19:16;28.20;63.20
23291;DHT22;11814;44.686;10.842;2023-08-31T12:21:46;28.20;63.10
23291;DHT22;11814;44.686;10.842;2023-08-31T12:24:12;28.30;63.50
23291;DHT22;11814;44.686;10.842;2023-08-31T12:26:38;28.30;63.40
23291;DHT22;11814;44.686;10.842;2023-08-31T12:29:04;28.30;62.50
23291;DHT22;11814;44.686;10.842;2023-08-31T12:31:31;28.30;62.30
23291;DHT22;11814;44.686;10.842;2023-08-31T12:33:57;28.20;62.50
23291;DHT22;11814;44.686;10.842;2023-08-31T12:36:23;28.10;62.90
23291;DHT22;11814;44.686;10.842;2023-08-31T12:38:49;28.10;63.40
23291;DHT22;11814;44.686;10.842;2023-08-31T12:41:14;28.10;64.20
23291;DHT22;11814;44.686;10.842;2023-08-31T12:43:40;28.10;63.40
23291;DHT22;11814;44.686;10.842;2023-08-31T12:46:06;28.10;63.50
23291;DHT22;11814;44.686;10.842;2023-08-31T12:48:32;28.20;63.80
23291;DHT22;11814;44.686;10.842;2023-08-31T12:50:58;28.20;63.70
23291;DHT22;11814;44.686;10.842;2023-08-31T12:53:24;28.20;63.30
23291;DHT22;11814;44.686;10.842;2023-08-31T12:55:49;28.30;63.40
23291;DHT22;11814;44.686;10.842;2023-08-31T12:58:15;28.30;63.70
23291;DHT22;11814;44.686;10.842;2023-08-31T13:00:41;28.30;63.80
23291;DHT22;11814;44.686;10.842;2023-08-31T13:03:09;28.30;64.20
23291;DHT22;11814;44.686;10.842;2023-08-31T13:05:38;28.20;64.60
23291;DHT22;11814;44.686;10.842;2023-08-31T13:08:04;28.10;64.80
23291;DHT22;11814;44.686;10.842;2023-08-31T13:10:30;28.10;65.00
23291;DHT22;11814;44.686;10.842;2023-08-31T13:12:56;28.00;65.10
23291;DHT22;11814;44.686;10.842;2023-08-31T13:15:22;27.90;65.10
23291;DHT22;11814;44.686;10.842;2023-08-31T13:17:47;27.90;65.30
23291;DHT22;11814;44.686;10.842;2023-08-31T13:20:13;27.80;65.70
23291;DHT22;11814;44.686;10.842;2023-08-31T13:22:39;27.70;65.90
23291;DHT22;11814;44.686;10.842;2023-08-31T13:25:05;27.70;65.70
23291;DHT22;11814;44.686;10.842;2023-08-31T13:27:30;27.60;65.50
23291;DHT22;11814;44.686;10.842;2023-08-31T13:29:58;27.60;65.60
23291;DHT22;11814;44.686;10.842;2023-08-31T13:32:24;27.60;66.00
23291;DHT22;11814;44.686;10.842;2023-08-31T13:34:51;27.50;66.50
23291;DHT22;11814;44.686;10.842;2023-08-31T13:37:17;27.50;67.80
23291;DHT22;11814;44.686;10.842;2023-08-31T13:39:43;27.50;68.80
23291;DHT22;11814;44.686;10.842;2023-08-31T13:42:08;27.40;69.30
23291;DHT22;11814;44.686;10.842;2023-08-31T13:44:34;27.30;69.50
23291;DHT22;11814;44.686;10.842;2023-08-31T13:47:01;27.30;69.80
23291;DHT22;11814;44.686;10.842;2023-08-31T13:49:28;27.30;69.90
23291;DHT22;11814;44.686;10.842;2023-08-31T13:51:54;27.20;69.70
23291;DHT22;11814;44.686;10.842;2023-08-31T13:54:20;27.10;69.10
23291;DHT22;11814;44.686;10.842;2023-08-31T13:56:46;27.10;68.90
23291;DHT22;11814;44.686;10.842;2023-08-31T13:59:11;27.10;68.90
23291;DHT22;11814;44.686;10.842;2023-08-31T14:01:37;27.20;68.80
23291;DHT22;11814;44.686;10.842;2023-08-31T14:04:03;27.30;68.40
23291;DHT22;11814;44.686;10.842;2023-08-31T14:06:29;27.40;67.90
23291;DHT22;11814;44.686;10.842;2023-08-31T14:08:55;27.50;67.60
23291;DHT22;11814;44.686;10.842;2023-08-31T14:11:21;27.60;67.40
23291;DHT22;11814;44.686;10.842;2023-08-31T14:13:46;27.60;66.80
23291;DHT22;11814;44.686;10.842;2023-08-31T14:16:12;27.70;66.50
23291;DHT22;11814;44.686;10.842;2023-08-31T14:18:38;27.70;66.10
23291;DHT22;11814;44.686;10.842;2023-08-31T14:21:04;27.60;65.90
23291;DHT22;11814;44.686;10.842;2023-08-31T14:23:30;27.60;65.80
23291;DHT22;11814;44.686;10.842;2023-08-31T14:26:03;27.60;65.70
23291;DHT22;11814;44.686;10.842;2023-08-31T14:28:29;27.60;65.60
23291;DHT22;11814;44.686;10.842;2023-08-31T14:30:55;27.60;65.60
23291;DHT22;11814;44.686;10.842;2023-08-31T14:33:21;27.60;65.60
23291;DHT22;11814;44.686;10.842;2023-08-31T14:35:49;27.70;65.90
23291;DHT22;11814;44.686;10.842;2023-08-31T14:38:20;27.70;65.90
23291;DHT22;11814;44.686;10.842;2023-08-31T14:40:47;27.70;66.20
23291;DHT22;11814;44.686;10.842;2023-08-31T14:43:12;27.80;66.80
23291;DHT22;11814;44.686;10.842;2023-08-31T14:45:38;27.80;67.40
23291;DHT22;11814;44.686;10.842;2023-08-31T14:48:04;27.90;67.50
23291;DHT22;11814;44.686;10.842;2023-08-31T14:50:30;28.00;67.50
23291;DHT22;11814;44.686;10.842;2023-08-31T14:52:55;28.00;67.60
23291;DHT22;11814;44.686;10.842;2023-08-31T14:55:21;28.00;67.10
23291;DHT22;11814;44.686;10.842;2023-08-31T14:57:47;28.10;66.60
23291;DHT22;11814;44.686;10.842;2023-08-31T15:00:12;28.10;66.00
23291;DHT22;11814;44.686;10.842;2023-08-31T15:02:38;28.20;65.70
23291;DHT22;11814;44.686;10.842;2023-08-31T15:05:04;28.20;65.90
23291;DHT22;11814;44.686;10.842;2023-08-31T15:07:30;28.30;65.90
23291;DHT22;11814;44.686;10.842;2023-08-31T15:09:56;28.30;65.90
23291;DHT22;11814;44.686;10.842;2023-08-31T15:12:22;28.30;65.60
23291;DHT22;11814;44.686;10.842;2023-08-31T15:14:47;28.30;65.20
23291;DHT22;11814;44.686;10.842;2023-08-31T15:17:13;28.30;65.00
23291;DHT22;11814;44.686;10.842;2023-08-31T15:19:38;28.30;65.00
23291;DHT22;11814;44.686;10.842;2023-08-31T15:22:04;28.30;65.20